sensor_id;sensor_type;location;lat;lon;timestamp;pressure;altitude;pressure_sealevel;temperature;humidity
37694;BME280;23531;50.122;8.644;2023-01-16T00:01:25;99156.69;;;6.66;80.58
37694;BME280;23531;50.122;8.644;2023-01-16T00:03:28;99158.91;;;6.76;79.90
37694;BME280;23531;50.122;8.644;2023-01-16T00:05:30;99152.34;;;6.72;79.89
37694;BME280;23531;50.122;8.644;2023-01-16T00:07:31;99147.22;;;6.70;79.47
37694;BME280;23531;50.122;8.644;2023-01-16T00:09:32;99144.13;;;6.67;79.12
37694;BME280;23531;50.122;8.644;2023-01-16T00:11:33;99134.84;;;6.76;79.39
37694;BME280;23531;50.122;8.644;2023-01-16T00:13:35;99142.91;;;6.69;78.69
37694;BME280;23531;50.122;8.644;2023-01-16T00:15:36;99128.25;;;6.78;78.98
37694;BME280;23531;50.122;8.644;2023-01-16T00:17:37;99123.28;;;6.82;79.24
37694;BME280;23531;50.122;8.644;2023-01-16T00:19:40;99127.06;;;6.74;78.86
37694;BME280;23531;50.122;8.644;2023-01-16T00:21:41;99119.97;;;6.55;79.02
37694;BME280;23531;50.122;8.644;2023-01-16T00:23:44;99115.22;;;6.64;79.58
37694;BME280;23531;50.122;8.644;2023-01-16T00:25:45;99113.94;;;6.66;79.27
37694;BME280;23531;50.122;8.644;2023-01-16T00:27:46;99102.16;;;6.49;80.09
37694;BME280;23531;50.122;8.644;2023-01-16T00:29:47;99102.22;;;6.42;80.60
37694;BME280;23531;50.122;8.644;2023-01-16T00:31:49;99099.81;;;6.59;80.28
37694;BME280;23531;50.122;8.644;2023-01-16T00:33:50;99092.16;;;6.69;79.90
37694;BME280;23531;50.122;8.644;2023-01-16T00:35:52;99096.56;;;6.82;79.54
37694;BME280;23531;50.122;8.644;2023-01-16T00:37:54;99088.97;;;6.79;79.32
37694;BME280;23531;50.122;8.644;2023-01-16T00:39:55;99078.19;;;6.67;79.32
37694;BME280;23531;50.122;8.644;2023-01-16T00:41:56;99074.00;;;6.53;79.45
37694;BME280;23531;50.122;8.644;2023-01-16T00:43:58;99073.53;;;6.56;80.21
37694;BME280;23531;50.122;8.644;2023-01-16T00:45:59;99063.91;;;6.55;79.98
37694;BME280;23531;50.122;8.644;2023-01-16T00:48:00;99054.31;;;6.72;79.22
37694;BME280;23531;50.122;8.644;2023-01-16T00:50:01;99051.94;;;6.64;79.57
37694;BME280;23531;50.122;8.644;2023-01-16T00:52:04;99048.56;;;6.75;79.75
37694;BME280;23531;50.122;8.644;2023-01-16T00:54:06;99048.56;;;6.75;78.79
37694;BME280;23531;50.122;8.644;2023-01-16T00:56:07;99047.41;;;6.65;78.34
37694;BME280;23531;50.122;8.644;2023-01-16T00:58:08;99037.75;;;6.64;78.48
37694;BME280;23531;50.122;8.644;2023-01-16T01:00:10;99030.50;;;6.71;78.72
37694;BME280;23531;50.122;8.644;2023-01-16T01:02:12;99029.13;;;6.86;78.27
37694;BME280;23531;50.122;8.644;2023-01-16T01:04:14;99016.19;;;6.65;77.97
37694;BME280;23531;50.122;8.644;2023-01-16T01:06:16;99022.50;;;6.89;77.96
37694;BME280;23531;50.122;8.644;2023-01-16T01:08:19;99028.03;;;6.94;78.63
37694;BME280;23531;50.122;8.644;2023-01-16T01:10:20;99025.91;;;7.21;78.05
37694;BME280;23531;50.122;8.644;2023-01-16T01:12:22;99020.91;;;7.24;77.10
37694;BME280;23531;50.122;8.644;2023-01-16T01:14:23;99023.66;;;7.00;76.09
37694;BME280;23531;50.122;8.644;2023-01-16T01:16:25;99022.47;;;6.96;76.61
37694;BME280;23531;50.122;8.644;2023-01-16T01:18:26;99014.56;;;6.82;76.23
37694;BME280;23531;50.122;8.644;2023-01-16T01:20:28;99005.09;;;7.05;76.32
37694;BME280;23531;50.122;8.644;2023-01-16T01:22:29;99004.38;;;6.73;74.29
37694;BME280;23531;50.122;8.644;2023-01-16T01:24:32;98993.19;;;6.64;75.51
37694;BME280;23531;50.122;8.644;2023-01-16T01:26:34;98988.03;;;6.87;75.50
37694;BME280;23531;50.122;8.644;2023-01-16T01:28:35;98986.28;;;6.75;74.91
37694;BME280;23531;50.122;8.644;2023-01-16T01:30:36;98982.06;;;6.85;74.64
37694;BME280;23531;50.122;8.644;2023-01-16T01:32:38;98974.63;;;6.69;75.00
37694;BME280;23531;50.122;8.644;2023-01-16T01:34:39;98970.09;;;6.70;75.21
37694;BME280;23531;50.122;8.644;2023-01-16T01:36:40;98961.69;;;6.66;74.57
37694;BME280;23531;50.122;8.644;2023-01-16T01:38:41;98962.03;;;6.76;73.77
37694;BME280;23531;50.122;8.644;2023-01-16T01:40:45;98955.09;;;6.69;74.21
37694;BME280;23531;50.122;8.644;2023-01-16T01:42:46;98946.13;;;6.63;74.66
37694;BME280;23531;50.122;8.644;2023-01-16T01:44:53;98946.44;;;6.73;74.32
37694;BME280;23531;50.122;8.644;2023-01-16T01:46:55;98942.56;;;6.69;73.66
37694;BME280;23531;50.122;8.644;2023-01-16T01:48:57;98941.75;;;6.69;74.11
37694;BME280;23531;50.122;8.644;2023-01-16T01:51:01;98935.16;;;6.53;73.24
37694;BME280;23531;50.122;8.644;2023-01-16T01:53:04;98920.06;;;6.59;73.67
37694;BME280;23531;50.122;8.644;2023-01-16T01:55:08;98920.38;;;6.69;73.89
37694;BME280;23531;50.122;8.644;2023-01-16T01:57:15;98923.44;;;6.72;74.06
37694;BME280;23531;50.122;8.644;2023-01-16T01:59:20;98912.66;;;6.79;73.42
37694;BME280;23531;50.122;8.644;2023-01-16T02:01:24;98908.53;;;6.65;73.29
37694;BME280;23531;50.122;8.644;2023-01-16T02:03:27;98908.88;;;6.50;72.60
37694;BME280;23531;50.122;8.644;2023-01-16T02:05:31;98903.09;;;6.53;72.60
37694;BME280;23531;50.122;8.644;2023-01-16T02:07:33;98903.25;;;6.58;72.83
37694;BME280;23531;50.122;8.644;2023-01-16T02:09:35;98889.75;;;6.71;72.20
37694;BME280;23531;50.122;8.644;2023-01-16T02:11:38;98897.59;;;6.66;72.44
37694;BME280;23531;50.122;8.644;2023-01-16T02:13:42;98883.00;;;6.50;72.09
37694;BME280;23531;50.122;8.644;2023-01-16T02:15:43;98875.94;;;6.38;72.44
37694;BME280;23531;50.122;8.644;2023-01-16T02:17:59;98872.00;;;6.40;72.19
37694;BME280;23531;50.122;8.644;2023-01-16T02:20:19;98864.13;;;6.45;71.79
37694;BME280;23531;50.122;8.644;2023-01-16T02:22:27;98867.63;;;6.46;72.34
37694;BME280;23531;50.122;8.644;2023-01-16T02:24:37;98857.84;;;6.40;71.78
37694;BME280;23531;50.122;8.644;2023-01-16T02:29:14;98852.19;;;6.30;72.75
37694;BME280;23531;50.122;8.644;2023-01-16T02:31:23;98852.38;;;6.53;72.01
37694;BME280;23531;50.122;8.644;2023-01-16T02:33:29;98847.81;;;6.35;71.54
37694;BME280;23531;50.122;8.644;2023-01-16T02:37:49;98842.25;;;6.37;72.43
37694;BME280;23531;50.122;8.644;2023-01-16T02:39:58;98836.41;;;6.46;72.25
37694;BME280;23531;50.122;8.644;2023-01-16T02:42:04;98836.47;;;6.40;72.04
37694;BME280;23531;50.122;8.644;2023-01-16T02:44:14;98830.97;;;6.35;71.88
37694;BME280;23531;50.122;8.644;2023-01-16T02:46:20;98817.19;;;6.38;72.04
37694;BME280;23531;50.122;8.644;2023-01-16T02:48:28;98813.19;;;6.47;71.58
37694;BME280;23531;50.122;8.644;2023-01-16T02:50:35;98817.34;;;6.43;72.40
37694;BME280;23531;50.122;8.644;2023-01-16T02:52:38;98810.38;;;6.42;72.15
37694;BME280;23531;50.122;8.644;2023-01-16T02:54:41;98816.59;;;6.36;71.15
37694;BME280;23531;50.122;8.644;2023-01-16T02:56:47;98799.84;;;6.29;72.40
37694;BME280;23531;50.122;8.644;2023-01-16T02:58:49;98799.09;;;6.40;72.42
37694;BME280;23531;50.122;8.644;2023-01-16T03:00:52;98804.28;;;6.35;72.18
37694;BME280;23531;50.122;8.644;2023-01-16T03:02:54;98782.72;;;6.36;72.31
37694;BME280;23531;50.122;8.644;2023-01-16T03:04:56;98774.78;;;6.48;72.09
37694;BME280;23531;50.122;8.644;2023-01-16T03:06:58;98774.34;;;6.51;71.26
37694;BME280;23531;50.122;8.644;2023-01-16T03:09:14;98771.31;;;6.29;71.15
37694;BME280;23531;50.122;8.644;2023-01-16T03:11:19;98769.72;;;6.22;71.62
37694;BME280;23531;50.122;8.644;2023-01-16T03:13:26;98753.50;;;6.41;72.18
37694;BME280;23531;50.122;8.644;2023-01-16T03:15:32;98754.50;;;6.77;72.12
37694;BME280;23531;50.122;8.644;2023-01-16T03:17:39;98746.97;;;6.85;71.55
37694;BME280;23531;50.122;8.644;2023-01-16T03:19:52;98747.09;;;6.90;70.43
37694;BME280;23531;50.122;8.644;2023-01-16T03:22:02;98742.41;;;6.74;70.37
37694;BME280;23531;50.122;8.644;2023-01-16T03:24:08;98734.22;;;6.69;69.85
37694;BME280;23531;50.122;8.644;2023-01-16T03:26:14;98724.28;;;6.76;70.54
37694;BME280;23531;50.122;8.644;2023-01-16T03:28:20;98718.13;;;6.76;70.37
37694;BME280;23531;50.122;8.644;2023-01-16T03:30:26;98723.97;;;6.84;70.08
37694;BME280;23531;50.122;8.644;2023-01-16T03:32:30;98712.06;;;6.69;70.42
37694;BME280;23531;50.122;8.644;2023-01-16T03:34:36;98709.47;;;6.62;70.00
37694;BME280;23531;50.122;8.644;2023-01-16T03:36:40;98697.75;;;6.63;70.59
37694;BME280;23531;50.122;8.644;2023-01-16T03:38:45;98692.19;;;6.65;70.20
37694;BME280;23531;50.122;8.644;2023-01-16T03:40:48;98699.66;;;6.74;70.39
37694;BME280;23531;50.122;8.644;2023-01-16T03:42:52;98697.81;;;6.75;69.28
37694;BME280;23531;50.122;8.644;2023-01-16T03:44:57;98695.81;;;6.70;69.77
37694;BME280;23531;50.122;8.644;2023-01-16T03:47:00;98696.22;;;6.85;70.26
37694;BME280;23531;50.122;8.644;2023-01-16T03:49:04;98693.41;;;6.80;69.88
37694;BME280;23531;50.122;8.644;2023-01-16T03:51:08;98694.00;;;6.82;69.65
37694;BME280;23531;50.122;8.644;2023-01-16T03:53:13;98684.03;;;6.60;68.89
37694;BME280;23531;50.122;8.644;2023-01-16T03:55:17;98676.78;;;6.78;69.38
37694;BME280;23531;50.122;8.644;2023-01-16T03:57:22;98664.41;;;6.96;69.55
37694;BME280;23531;50.122;8.644;2023-01-16T03:59:25;98663.41;;;6.78;68.45
37694;BME280;23531;50.122;8.644;2023-01-16T04:01:29;98654.03;;;6.76;68.76
37694;BME280;23531;50.122;8.644;2023-01-16T04:03:34;98655.28;;;6.73;68.69
37694;BME280;23531;50.122;8.644;2023-01-16T04:05:40;98645.69;;;6.84;69.28
37694;BME280;23531;50.122;8.644;2023-01-16T04:07:47;98644.59;;;6.73;67.88
37694;BME280;23531;50.122;8.644;2023-01-16T04:09:53;98636.19;;;6.58;68.32
37694;BME280;23531;50.122;8.644;2023-01-16T04:11:56;98632.00;;;6.50;67.74
37694;BME280;23531;50.122;8.644;2023-01-16T04:13:59;98621.53;;;6.49;68.41
37694;BME280;23531;50.122;8.644;2023-01-16T04:16:04;98620.28;;;6.51;68.26
37694;BME280;23531;50.122;8.644;2023-01-16T04:18:07;98609.84;;;6.62;67.90
37694;BME280;23531;50.122;8.644;2023-01-16T04:20:09;98602.28;;;6.59;68.67
37694;BME280;23531;50.122;8.644;2023-01-16T04:22:17;98601.38;;;6.53;68.13
37694;BME280;23531;50.122;8.644;2023-01-16T04:24:19;98591.91;;;6.39;68.02
37694;BME280;23531;50.122;8.644;2023-01-16T04:26:21;98587.31;;;6.57;67.96
37694;BME280;23531;50.122;8.644;2023-01-16T04:28:23;98584.75;;;6.51;67.39
37694;BME280;23531;50.122;8.644;2023-01-16T04:30:24;98583.50;;;6.53;67.98
37694;BME280;23531;50.122;8.644;2023-01-16T04:32:26;98577.88;;;6.32;67.64
37694;BME280;23531;50.122;8.644;2023-01-16T04:34:27;98579.41;;;6.51;68.34
37694;BME280;23531;50.122;8.644;2023-01-16T04:36:28;98579.44;;;6.63;67.62
37694;BME280;23531;50.122;8.644;2023-01-16T04:38:31;98572.06;;;6.46;67.78
37694;BME280;23531;50.122;8.644;2023-01-16T04:40:32;98574.16;;;6.44;67.70
37694;BME280;23531;50.122;8.644;2023-01-16T04:42:33;98568.47;;;6.41;67.38
37694;BME280;23531;50.122;8.644;2023-01-16T04:44:36;98567.44;;;6.42;67.98
37694;BME280;23531;50.122;8.644;2023-01-16T04:46:37;98562.34;;;6.52;67.58
37694;BME280;23531;50.122;8.644;2023-01-16T04:48:38;98549.84;;;6.64;67.78
37694;BME280;23531;50.122;8.644;2023-01-16T04:50:40;98549.69;;;6.59;67.92
37694;BME280;23531;50.122;8.644;2023-01-16T04:52:41;98533.06;;;6.45;65.77
37694;BME280;23531;50.122;8.644;2023-01-16T04:54:42;98534.69;;;6.35;67.07
37694;BME280;23531;50.122;8.644;2023-01-16T04:56:44;98530.38;;;6.34;67.00
37694;BME280;23531;50.122;8.644;2023-01-16T04:58:45;98520.44;;;6.41;67.90
37694;BME280;23531;50.122;8.644;2023-01-16T05:00:47;98506.34;;;6.34;66.69
37694;BME280;23531;50.122;8.644;2023-01-16T05:02:49;98505.09;;;6.36;67.84
37694;BME280;23531;50.122;8.644;2023-01-16T05:04:50;98511.00;;;6.27;66.88
37694;BME280;23531;50.122;8.644;2023-01-16T05:06:51;98498.56;;;6.32;67.72
37694;BME280;23531;50.122;8.644;2023-01-16T05:08:52;98481.19;;;6.41;66.80
37694;BME280;23531;50.122;8.644;2023-01-16T05:10:54;98470.75;;;6.28;66.49
37694;BME280;23531;50.122;8.644;2023-01-16T05:12:55;98461.78;;;6.23;67.12
37694;BME280;23531;50.122;8.644;2023-01-16T05:14:56;98453.47;;;6.31;67.56
37694;BME280;23531;50.122;8.644;2023-01-16T05:16:59;98452.88;;;6.40;67.13
37694;BME280;23531;50.122;8.644;2023-01-16T05:19:00;98455.66;;;6.34;66.66
37694;BME280;23531;50.122;8.644;2023-01-16T05:21:01;98444.97;;;6.34;66.98
37694;BME280;23531;50.122;8.644;2023-01-16T05:23:03;98453.47;;;6.31;66.99
37694;BME280;23531;50.122;8.644;2023-01-16T05:25:05;98447.84;;;6.32;66.90
37694;BME280;23531;50.122;8.644;2023-01-16T05:27:07;98433.38;;;6.40;67.39
37694;BME280;23531;50.122;8.644;2023-01-16T05:29:08;98430.81;;;6.45;67.38
37694;BME280;23531;50.122;8.644;2023-01-16T05:31:09;98432.44;;;6.57;67.55
37694;BME280;23531;50.122;8.644;2023-01-16T05:33:12;98425.69;;;6.43;67.16
37694;BME280;23531;50.122;8.644;2023-01-16T05:35:13;98422.25;;;6.43;66.31
37694;BME280;23531;50.122;8.644;2023-01-16T05:37:15;98404.69;;;6.35;66.78
37694;BME280;23531;50.122;8.644;2023-01-16T05:39:16;98411.09;;;6.46;66.91
37694;BME280;23531;50.122;8.644;2023-01-16T05:41:18;98405.16;;;6.44;67.12
37694;BME280;23531;50.122;8.644;2023-01-16T05:43:19;98394.38;;;6.39;66.71
37694;BME280;23531;50.122;8.644;2023-01-16T05:45:20;98395.19;;;6.39;66.62
37694;BME280;23531;50.122;8.644;2023-01-16T05:47:21;98385.41;;;6.56;67.46
37694;BME280;23531;50.122;8.644;2023-01-16T05:49:24;98369.28;;;6.63;66.62
37694;BME280;23531;50.122;8.644;2023-01-16T05:51:26;98359.19;;;6.65;66.47
37694;BME280;23531;50.122;8.644;2023-01-16T05:53:27;98351.41;;;6.75;66.07
37694;BME280;23531;50.122;8.644;2023-01-16T05:55:30;98352.78;;;6.66;65.51
37694;BME280;23531;50.122;8.644;2023-01-16T05:57:31;98349.06;;;6.67;66.62
37694;BME280;23531;50.122;8.644;2023-01-16T05:59:32;98345.03;;;6.53;65.18
37694;BME280;23531;50.122;8.644;2023-01-16T06:01:35;98342.69;;;6.68;66.09
37694;BME280;23531;50.122;8.644;2023-01-16T06:03:37;98339.72;;;6.53;65.82
37694;BME280;23531;50.122;8.644;2023-01-16T06:05:39;98333.06;;;6.55;66.15
37694;BME280;23531;50.122;8.644;2023-01-16T06:07:40;98327.47;;;6.69;65.85
37694;BME280;23531;50.122;8.644;2023-01-16T06:09:42;98328.53;;;6.56;65.61
37694;BME280;23531;50.122;8.644;2023-01-16T06:11:44;98312.06;;;6.59;65.35
37694;BME280;23531;50.122;8.644;2023-01-16T06:13:45;98312.63;;;6.61;65.61
37694;BME280;23531;50.122;8.644;2023-01-16T06:15:47;98308.22;;;6.55;64.46
37694;BME280;23531;50.122;8.644;2023-01-16T06:17:48;98304.28;;;6.57;65.44
37694;BME280;23531;50.122;8.644;2023-01-16T06:19:52;98299.38;;;6.66;65.14
37694;BME280;23531;50.122;8.644;2023-01-16T06:21:55;98283.50;;;6.60;64.72
37694;BME280;23531;50.122;8.644;2023-01-16T06:23:56;98286.72;;;6.73;65.58
37694;BME280;23531;50.122;8.644;2023-01-16T06:25:57;98285.78;;;6.68;65.02
37694;BME280;23531;50.122;8.644;2023-01-16T06:27:59;98279.75;;;6.72;64.46
37694;BME280;23531;50.122;8.644;2023-01-16T06:30:00;98274.28;;;6.67;65.09
37694;BME280;23531;50.122;8.644;2023-01-16T06:32:01;98263.28;;;6.92;64.61
37694;BME280;23531;50.122;8.644;2023-01-16T06:34:04;98265.53;;;6.83;64.08
37694;BME280;23531;50.122;8.644;2023-01-16T06:36:05;98257.03;;;6.58;64.00
37694;BME280;23531;50.122;8.644;2023-01-16T06:38:08;98250.06;;;6.57;65.20
37694;BME280;23531;50.122;8.644;2023-01-16T06:40:09;98250.38;;;6.72;65.19
37694;BME280;23531;50.122;8.644;2023-01-16T06:42:11;98244.84;;;6.62;64.57
37694;BME280;23531;50.122;8.644;2023-01-16T06:44:12;98231.69;;;6.72;64.58
37694;BME280;23531;50.122;8.644;2023-01-16T06:46:13;98228.72;;;6.85;64.52
37694;BME280;23531;50.122;8.644;2023-01-16T06:48:15;98223.44;;;6.90;65.34
37694;BME280;23531;50.122;8.644;2023-01-16T06:50:16;98225.81;;;6.87;64.52
37694;BME280;23531;50.122;8.644;2023-01-16T06:52:17;98219.66;;;6.86;64.86
37694;BME280;23531;50.122;8.644;2023-01-16T06:54:20;98214.56;;;7.02;64.64
37694;BME280;23531;50.122;8.644;2023-01-16T06:56:21;98220.97;;;7.01;64.38
37694;BME280;23531;50.122;8.644;2023-01-16T06:58:24;98209.16;;;6.97;64.89
37694;BME280;23531;50.122;8.644;2023-01-16T07:00:26;98207.94;;;6.87;64.41
37694;BME280;23531;50.122;8.644;2023-01-16T07:02:27;98196.78;;;6.79;63.69
37694;BME280;23531;50.122;8.644;2023-01-16T07:04:29;98198.28;;;6.86;64.19
37694;BME280;23531;50.122;8.644;2023-01-16T07:06:30;98195.13;;;6.89;64.50
37694;BME280;23531;50.122;8.644;2023-01-16T07:08:31;98188.66;;;6.85;64.18
37694;BME280;23531;50.122;8.644;2023-01-16T07:10:34;98193.66;;;6.82;64.33
37694;BME280;23531;50.122;8.644;2023-01-16T07:12:36;98186.09;;;6.79;64.70
37694;BME280;23531;50.122;8.644;2023-01-16T07:14:37;98184.34;;;6.84;65.14
37694;BME280;23531;50.122;8.644;2023-01-16T07:16:56;98178.19;;;6.84;64.04
37694;BME280;23531;50.122;8.644;2023-01-16T07:19:15;98170.66;;;6.81;64.89
37694;BME280;23531;50.122;8.644;2023-01-16T07:21:36;98169.31;;;6.95;64.54
37694;BME280;23531;50.122;8.644;2023-01-16T07:23:59;98169.66;;;6.70;64.78
37694;BME280;23531;50.122;8.644;2023-01-16T07:26:03;98159.47;;;6.67;64.53
37694;BME280;23531;50.122;8.644;2023-01-16T07:28:06;98150.63;;;6.67;64.41
37694;BME280;23531;50.122;8.644;2023-01-16T07:30:07;98145.28;;;6.67;64.40
37694;BME280;23531;50.122;8.644;2023-01-16T07:32:09;98142.78;;;6.60;64.40
37694;BME280;23531;50.122;8.644;2023-01-16T07:34:11;98137.16;;;6.45;64.19
37694;BME280;23531;50.122;8.644;2023-01-16T07:36:12;98128.28;;;6.39;64.81
37694;BME280;23531;50.122;8.644;2023-01-16T07:38:14;98111.84;;;6.47;64.74
37694;BME280;23531;50.122;8.644;2023-01-16T07:40:15;98110.56;;;6.50;64.64
37694;BME280;23531;50.122;8.644;2023-01-16T07:42:18;98107.97;;;6.38;64.93
37694;BME280;23531;50.122;8.644;2023-01-16T07:44:19;98107.00;;;6.44;65.17
37694;BME280;23531;50.122;8.644;2023-01-16T07:46:20;98107.31;;;6.48;65.17
37694;BME280;23531;50.122;8.644;2023-01-16T07:48:22;98102.47;;;6.45;64.56
37694;BME280;23531;50.122;8.644;2023-01-16T07:50:23;98098.63;;;6.52;64.93
37694;BME280;23531;50.122;8.644;2023-01-16T07:52:25;98092.78;;;6.55;64.12
37694;BME280;23531;50.122;8.644;2023-01-16T07:54:28;98085.09;;;6.59;64.08
37694;BME280;23531;50.122;8.644;2023-01-16T07:56:29;98082.81;;;6.51;63.76
37694;BME280;23531;50.122;8.644;2023-01-16T07:58:32;98074.34;;;6.54;63.67
37694;BME280;23531;50.122;8.644;2023-01-16T08:00:33;98072.91;;;6.63;64.21
37694;BME280;23531;50.122;8.644;2023-01-16T08:02:34;98060.44;;;6.52;62.95
37694;BME280;23531;50.122;8.644;2023-01-16T08:04:36;98050.22;;;6.49;63.02
37694;BME280;23531;50.122;8.644;2023-01-16T08:06:37;98045.34;;;6.46;62.96
37694;BME280;23531;50.122;8.644;2023-01-16T08:08:42;98043.84;;;6.50;63.04
37694;BME280;23531;50.122;8.644;2023-01-16T08:10:44;98044.56;;;6.62;62.96
37694;BME280;23531;50.122;8.644;2023-01-16T08:12:45;98022.63;;;6.60;62.62
37694;BME280;23531;50.122;8.644;2023-01-16T08:14:47;98022.97;;;6.64;62.16
37694;BME280;23531;50.122;8.644;2023-01-16T08:16:49;98013.63;;;6.66;62.29
37694;BME280;23531;50.122;8.644;2023-01-16T08:18:50;98010.72;;;6.68;62.25
37694;BME280;23531;50.122;8.644;2023-01-16T08:20:51;98007.59;;;6.54;61.96
37694;BME280;23531;50.122;8.644;2023-01-16T08:22:52;98000.53;;;6.48;62.13
37694;BME280;23531;50.122;8.644;2023-01-16T08:24:55;98000.72;;;6.58;62.63
37694;BME280;23531;50.122;8.644;2023-01-16T08:26:56;97995.84;;;6.55;63.07
37694;BME280;23531;50.122;8.644;2023-01-16T08:28:57;97996.66;;;6.55;62.62
37694;BME280;23531;50.122;8.644;2023-01-16T08:31:04;97987.22;;;6.65;62.75
37694;BME280;23531;50.122;8.644;2023-01-16T08:33:07;97982.09;;;6.63;63.33
37694;BME280;23531;50.122;8.644;2023-01-16T08:35:09;97984.13;;;6.56;63.66
37694;BME280;23531;50.122;8.644;2023-01-16T08:37:10;97976.69;;;6.58;63.62
37694;BME280;23531;50.122;8.644;2023-01-16T08:39:12;97972.06;;;6.70;64.59
37694;BME280;23531;50.122;8.644;2023-01-16T08:41:13;97950.22;;;6.56;64.02
37694;BME280;23531;50.122;8.644;2023-01-16T08:43:32;97951.03;;;6.74;63.61
37694;BME280;23531;50.122;8.644;2023-01-16T08:45:51;97945.69;;;6.74;64.00
37694;BME280;23531;50.122;8.644;2023-01-16T08:48:23;97948.09;;;6.75;63.41
37694;BME280;23531;50.122;8.644;2023-01-16T08:50:43;97930.09;;;6.66;63.46
37694;BME280;23531;50.122;8.644;2023-01-16T08:53:03;97927.09;;;6.62;63.40
37694;BME280;23531;50.122;8.644;2023-01-16T08:55:04;97914.25;;;6.81;63.87
37694;BME280;23531;50.122;8.644;2023-01-16T08:57:06;97908.91;;;6.81;62.46
37694;BME280;23531;50.122;8.644;2023-01-16T08:59:07;97901.09;;;6.74;62.98
37694;BME280;23531;50.122;8.644;2023-01-16T09:01:08;97905.44;;;6.80;62.85
37694;BME280;23531;50.122;8.644;2023-01-16T09:03:10;97892.44;;;6.89;62.45
37694;BME280;23531;50.122;8.644;2023-01-16T09:05:13;97902.84;;;6.85;61.38
37694;BME280;23531;50.122;8.644;2023-01-16T09:07:15;97903.44;;;6.71;61.06
37694;BME280;23531;50.122;8.644;2023-01-16T09:09:16;97896.31;;;6.76;61.18
37694;BME280;23531;50.122;8.644;2023-01-16T09:11:17;97892.75;;;6.71;61.19
37694;BME280;23531;50.122;8.644;2023-01-16T09:13:36;97890.28;;;6.64;60.71
37694;BME280;23531;50.122;8.644;2023-01-16T09:15:49;97887.19;;;6.55;61.29
37694;BME280;23531;50.122;8.644;2023-01-16T09:17:50;97890.03;;;6.66;61.80
37694;BME280;23531;50.122;8.644;2023-01-16T09:19:52;97884.19;;;6.69;61.90
37694;BME280;23531;50.122;8.644;2023-01-16T09:21:54;97873.34;;;6.75;61.49
37694;BME280;23531;50.122;8.644;2023-01-16T09:23:56;97872.69;;;6.90;61.09
37694;BME280;23531;50.122;8.644;2023-01-16T09:25:57;97870.22;;;6.83;60.94
37694;BME280;23531;50.122;8.644;2023-01-16T09:27:59;97868.53;;;6.77;61.06
37694;BME280;23531;50.122;8.644;2023-01-16T09:30:00;97874.84;;;6.88;60.90
37694;BME280;23531;50.122;8.644;2023-01-16T09:32:01;97884.13;;;6.85;60.66
37694;BME280;23531;50.122;8.644;2023-01-16T09:34:08;97870.34;;;6.72;60.75
37694;BME280;23531;50.122;8.644;2023-01-16T09:36:09;97874.94;;;6.76;60.54
37694;BME280;23531;50.122;8.644;2023-01-16T09:38:12;97864.81;;;6.78;60.74
37694;BME280;23531;50.122;8.644;2023-01-16T09:40:14;97869.91;;;6.80;61.29
37694;BME280;23531;50.122;8.644;2023-01-16T09:44:50;97867.44;;;6.95;61.14
37694;BME280;23531;50.122;8.644;2023-01-16T09:46:52;97870.34;;;6.93;61.05
37694;BME280;23531;50.122;8.644;2023-01-16T09:48:55;97873.47;;;7.07;61.47
37694;BME280;23531;50.122;8.644;2023-01-16T09:50:59;97867.34;;;7.12;61.57
37694;BME280;23531;50.122;8.644;2023-01-16T09:53:03;97858.22;;;7.08;61.01
37694;BME280;23531;50.122;8.644;2023-01-16T09:55:26;97850.66;;;7.00;61.33
37694;BME280;23531;50.122;8.644;2023-01-16T09:57:45;97849.16;;;7.09;61.18
37694;BME280;23531;50.122;8.644;2023-01-16T10:00:05;97847.91;;;7.16;61.28
37694;BME280;23531;50.122;8.644;2023-01-16T10:02:12;97846.47;;;7.31;60.83
37694;BME280;23531;50.122;8.644;2023-01-16T10:04:17;97846.63;;;7.24;60.21
37694;BME280;23531;50.122;8.644;2023-01-16T10:06:20;97830.00;;;7.17;60.49
37694;BME280;23531;50.122;8.644;2023-01-16T10:08:25;97823.00;;;7.11;60.80
37694;BME280;23531;50.122;8.644;2023-01-16T10:10:40;97825.72;;;7.16;60.28
37694;BME280;23531;50.122;8.644;2023-01-16T10:12:44;97816.53;;;7.07;59.90
37694;BME280;23531;50.122;8.644;2023-01-16T10:14:54;97817.84;;;7.04;59.63
37694;BME280;23531;50.122;8.644;2023-01-16T10:17:02;97823.00;;;7.11;60.11
37694;BME280;23531;50.122;8.644;2023-01-16T10:19:06;97809.88;;;7.09;60.29
37694;BME280;23531;50.122;8.644;2023-01-16T10:21:17;97803.94;;;7.29;60.29
37694;BME280;23531;50.122;8.644;2023-01-16T10:23:29;97806.13;;;7.32;60.63
37694;BME280;23531;50.122;8.644;2023-01-16T10:25:37;97805.25;;;7.26;60.74
37694;BME280;23531;50.122;8.644;2023-01-16T10:27:42;97795.91;;;7.29;60.66
37694;BME280;23531;50.122;8.644;2023-01-16T10:29:47;97793.28;;;7.34;60.42
37694;BME280;23531;50.122;8.644;2023-01-16T10:31:50;97789.91;;;7.44;60.45
37694;BME280;23531;50.122;8.644;2023-01-16T10:33:57;97794.31;;;7.28;61.29
37694;BME280;23531;50.122;8.644;2023-01-16T10:36:02;97798.78;;;7.22;61.74
37694;BME280;23531;50.122;8.644;2023-01-16T10:38:09;97779.28;;;7.22;62.00
37694;BME280;23531;50.122;8.644;2023-01-16T10:40:18;97788.38;;;7.21;62.05
37694;BME280;23531;50.122;8.644;2023-01-16T10:42:21;97784.91;;;7.25;62.57
37694;BME280;23531;50.122;8.644;2023-01-16T10:44:43;97779.22;;;6.90;63.16
37694;BME280;23531;50.122;8.644;2023-01-16T10:47:07;97778.41;;;6.89;63.97
37694;BME280;23531;50.122;8.644;2023-01-16T10:49:26;97776.41;;;7.02;64.31
37694;BME280;23531;50.122;8.644;2023-01-16T10:51:27;97773.97;;;7.00;65.04
37694;BME280;23531;50.122;8.644;2023-01-16T10:53:29;97761.94;;;6.98;64.81
37694;BME280;23531;50.122;8.644;2023-01-16T10:55:30;97765.94;;;7.00;65.33
37694;BME280;23531;50.122;8.644;2023-01-16T10:57:33;97763.03;;;7.02;65.20
37694;BME280;23531;50.122;8.644;2023-01-16T10:59:35;97750.00;;;7.05;65.59
37694;BME280;23531;50.122;8.644;2023-01-16T11:01:37;97743.44;;;7.18;65.40
37694;BME280;23531;50.122;8.644;2023-01-16T11:03:41;97738.84;;;7.13;66.05
37694;BME280;23531;50.122;8.644;2023-01-16T11:05:43;97731.06;;;7.12;65.60
37694;BME280;23531;50.122;8.644;2023-01-16T11:07:44;97739.88;;;7.07;65.77
37694;BME280;23531;50.122;8.644;2023-01-16T11:09:46;97729.97;;;7.08;66.40
37694;BME280;23531;50.122;8.644;2023-01-16T11:11:49;97719.88;;;7.15;66.76